createdAt,value
2022-10-18T00:01:09.064Z,14.40
2022-10-18T00:03:46.165Z,14.30
2022-10-18T00:06:18.020Z,14.30
2022-10-18T00:08:53.466Z,14.30
2022-10-18T00:11:25.310Z,14.30
2022-10-18T00:13:58.290Z,14.30
2022-10-18T00:16:30.232Z,14.30
2022-10-18T00:19:02.283Z,14.30
2022-10-18T00:24:22.049Z,14.22
2022-10-18T00:26:54.116Z,14.30
2022-10-18T00:29:25.919Z,14.30
2022-10-18T00:31:57.792Z,14.30
2022-10-18T00:34:29.760Z,14.20
2022-10-18T00:37:01.733Z,14.12
2022-10-18T00:39:34.167Z,14.10
2022-10-18T00:42:06.412Z,14.10
2022-10-18T00:45:16.333Z,14.10
2022-10-18T00:47:55.360Z,14.10
2022-10-18T00:50:29.069Z,14.10
2022-10-18T00:53:04.599Z,14.10
2022-10-18T00:55:36.723Z,14.04
2022-10-18T00:58:10.331Z,14.02
2022-10-18T01:00:52.687Z,14.00
2022-10-18T01:03:24.804Z,14.00
2022-10-18T01:05:56.516Z,14.00
2022-10-18T01:08:51.338Z,14.00
2022-10-18T01:11:41.919Z,13.90
2022-10-18T01:14:27.041Z,13.90
2022-10-18T01:17:16.397Z,13.90
2022-10-18T01:20:11.914Z,13.90
2022-10-18T01:22:49.791Z,13.90
2022-10-18T01:25:37.834Z,13.98
2022-10-18T01:28:22.993Z,13.94
2022-10-18T01:30:59.882Z,13.92
2022-10-18T01:33:39.147Z,13.94
2022-10-18T01:36:17.239Z,14.00
2022-10-18T01:38:52.670Z,14.00
2022-10-18T01:41:26.951Z,14.00
2022-10-18T01:44:02.049Z,13.96
2022-10-18T01:46:34.585Z,13.98
2022-10-18T01:49:08.934Z,14.00
2022-10-18T01:51:41.139Z,14.04
2022-10-18T01:54:19.407Z,14.10
2022-10-18T01:56:59.609Z,14.12
2022-10-18T01:59:41.542Z,14.20
2022-10-18T02:02:26.413Z,14.30
2022-10-18T02:05:08.573Z,14.40
2022-10-18T02:08:00.187Z,14.40
2022-10-18T02:10:47.641Z,14.50
2022-10-18T02:13:23.440Z,14.40
2022-10-18T02:16:01.175Z,14.30
2022-10-18T02:18:38.400Z,14.20
2022-10-18T02:21:14.739Z,14.12
2022-10-18T02:23:48.129Z,14.10
2022-10-18T02:26:19.866Z,14.00
2022-10-18T02:28:52.204Z,14.00
2022-10-18T02:31:29.464Z,13.90
2022-10-18T02:34:06.060Z,13.90
2022-10-18T02:36:43.976Z,13.90
2022-10-18T02:39:19.271Z,13.90
2022-10-18T02:41:51.532Z,13.90
2022-10-18T02:44:24.012Z,13.90
2022-10-18T02:46:57.695Z,13.80
2022-10-18T02:49:30.207Z,13.80
2022-10-18T02:52:02.201Z,13.90
2022-10-18T02:54:34.151Z,13.90
2022-10-18T02:57:06.071Z,13.90
2022-10-18T02:59:37.931Z,13.80
2022-10-18T03:02:09.845Z,13.90
2022-10-18T03:04:41.646Z,14.00
2022-10-18T03:07:13.265Z,14.10
2022-10-18T03:09:45.032Z,14.20
2022-10-18T03:12:16.971Z,14.20
2022-10-18T03:14:48.626Z,14.20
2022-10-18T03:17:20.564Z,14.10
2022-10-18T03:19:52.587Z,14.00
2022-10-18T03:22:25.354Z,13.90
2022-10-18T03:24:57.324Z,13.80
2022-10-18T03:27:29.455Z,13.70
2022-10-18T03:30:01.642Z,13.70
2022-10-18T03:32:33.829Z,13.60
2022-10-18T03:35:06.443Z,13.58
2022-10-18T03:37:38.371Z,13.50
2022-10-18T03:40:12.100Z,13.40
2022-10-18T03:42:43.933Z,13.30
2022-10-18T03:45:15.921Z,13.30
2022-10-18T03:47:47.866Z,13.20
2022-10-18T03:50:20.512Z,13.10
2022-10-18T03:52:54.189Z,13.10
2022-10-18T03:55:25.945Z,13.06
2022-10-18T03:57:58.143Z,13.00
2022-10-18T04:00:29.995Z,12.90
2022-10-18T04:03:02.537Z,12.88
2022-10-18T04:05:36.689Z,12.80
2022-10-18T04:08:08.955Z,12.70
2022-10-18T04:10:41.864Z,12.60
2022-10-18T04:13:13.783Z,12.60
2022-10-18T04:15:45.988Z,12.52
2022-10-18T04:18:17.808Z,12.50
2022-10-18T04:20:49.556Z,12.50
2022-10-18T04:23:21.409Z,12.54
2022-10-18T04:25:53.283Z,12.52
2022-10-18T04:28:25.318Z,12.60
2022-10-18T04:30:58.224Z,12.58
2022-10-18T04:33:30.029Z,12.50
2022-10-18T04:36:02.228Z,12.50
2022-10-18T04:38:34.640Z,12.50
2022-10-18T04:41:06.511Z,12.50
2022-10-18T04:43:38.371Z,12.60
2022-10-18T04:46:10.384Z,12.60
2022-10-18T04:48:42.246Z,12.50
2022-10-18T04:51:16.332Z,12.50
2022-10-18T04:53:48.715Z,12.40
2022-10-18T04:56:20.708Z,12.30
2022-10-18T04:58:54.755Z,12.30
2022-10-18T05:01:26.796Z,12.30
2022-10-18T05:03:59.261Z,12.20
2022-10-18T05:06:31.078Z,12.20
2022-10-18T05:09:02.972Z,12.20
2022-10-18T05:11:34.822Z,12.28
2022-10-18T05:14:06.768Z,12.30
2022-10-18T05:16:38.713Z,12.30
2022-10-18T05:19:11.253Z,12.30
2022-10-18T05:21:43.122Z,12.30
2022-10-18T05:24:15.249Z,12.40
2022-10-18T05:26:47.198Z,12.30
2022-10-18T05:29:19.141Z,12.28
2022-10-18T05:31:52.277Z,12.20
2022-10-18T05:34:24.877Z,12.20
2022-10-18T05:36:56.688Z,12.10
2022-10-18T05:39:28.828Z,12.10
2022-10-18T05:42:00.845Z,12.10
2022-10-18T05:44:32.714Z,12.10
2022-10-18T05:47:04.647Z,12.10
2022-10-18T05:49:38.057Z,12.10
2022-10-18T05:52:09.912Z,12.10
2022-10-18T05:54:41.637Z,12.20
2022-10-18T05:57:13.465Z,12.22
2022-10-18T05:59:45.145Z,12.30
2022-10-18T06:02:16.885Z,12.40
2022-10-18T06:04:48.642Z,12.50
2022-10-18T06:07:20.350Z,12.60
2022-10-18T06:09:52.529Z,12.70
2022-10-18T06:12:24.259Z,12.80
2022-10-18T06:14:55.980Z,12.92
2022-10-18T06:17:30.306Z,13.10
2022-10-18T06:20:04.817Z,13.20
2022-10-18T06:22:36.582Z,13.30
2022-10-18T06:25:09.684Z,13.40
2022-10-18T06:27:41.345Z,13.50
2022-10-18T06:30:15.706Z,13.60
2022-10-18T06:32:47.440Z,13.70
2022-10-18T06:35:20.190Z,13.80
2022-10-18T06:37:51.987Z,13.80
2022-10-18T06:40:23.742Z,13.90
2022-10-18T06:43:05.862Z,14.00
2022-10-18T06:45:42.673Z,14.04
2022-10-18T06:48:14.638Z,14.14
2022-10-18T06:50:53.715Z,14.20
2022-10-18T06:53:25.916Z,14.30
2022-10-18T06:56:02.304Z,14.40
2022-10-18T06:58:35.374Z,14.50
2022-10-18T07:01:10.883Z,14.60
2022-10-18T07:03:43.062Z,14.70
2022-10-18T07:06:16.327Z,14.80
2022-10-18T07:08:48.700Z,14.82
2022-10-18T07:11:23.888Z,14.90
2022-10-18T07:14:00.892Z,14.90
2022-10-18T07:16:33.664Z,15.00
2022-10-18T07:19:05.455Z,15.02
2022-10-18T07:21:37.578Z,15.10
2022-10-18T07:24:09.542Z,15.20
2022-10-18T07:26:42.534Z,15.28
2022-10-18T07:29:14.736Z,15.30
2022-10-18T07:31:46.328Z,15.40
2022-10-18T07:34:18.081Z,15.48
2022-10-18T07:36:49.878Z,15.50
2022-10-18T07:39:21.695Z,15.60
2022-10-18T07:41:54.256Z,15.70
2022-10-18T07:44:26.269Z,15.80
2022-10-18T07:46:58.134Z,15.88
2022-10-18T07:49:30.306Z,15.98
2022-10-18T07:52:02.053Z,16.10
2022-10-18T07:54:34.065Z,16.20
2022-10-18T07:57:06.491Z,16.40
2022-10-18T07:59:38.878Z,16.60
2022-10-18T08:02:10.668Z,16.80
2022-10-18T08:04:42.729Z,16.94
2022-10-18T08:07:14.668Z,17.10
2022-10-18T08:09:46.847Z,17.22
2022-10-18T08:12:18.705Z,17.50
2022-10-18T08:14:50.566Z,17.70
2022-10-18T08:17:22.358Z,17.90
2022-10-18T08:20:11.495Z,18.00
2022-10-18T08:22:45.748Z,18.18
2022-10-18T08:25:18.277Z,18.30
2022-10-18T08:27:50.035Z,18.50
2022-10-18T08:30:23.440Z,18.66
2022-10-18T08:32:55.751Z,18.80
2022-10-18T08:35:27.517Z,19.00
2022-10-18T08:37:59.425Z,19.16
2022-10-18T08:40:34.195Z,19.38
2022-10-18T08:43:16.032Z,19.60
2022-10-18T08:45:57.274Z,19.90
2022-10-18T08:48:35.452Z,20.10
2022-10-18T08:51:18.609Z,20.30
2022-10-18T08:53:57.912Z,20.40
2022-10-18T08:56:29.836Z,20.40
2022-10-18T08:59:02.627Z,20.50
2022-10-18T09:04:39.703Z,20.70
2022-10-18T09:07:25.886Z,20.80
2022-10-18T09:10:07.848Z,21.00
2022-10-18T09:12:59.667Z,21.20
2022-10-18T09:15:42.265Z,21.40
2022-10-18T09:18:33.143Z,21.60
2022-10-18T09:21:18.763Z,21.80
2022-10-18T09:23:58.355Z,21.98
2022-10-18T09:26:33.424Z,22.20
2022-10-18T09:31:57.747Z,22.60
2022-10-18T09:34:38.878Z,22.76
2022-10-18T09:37:15.865Z,22.80
2022-10-18T09:39:49.810Z,22.86
2022-10-18T09:42:27.189Z,22.90
2022-10-18T09:45:03.367Z,22.90
2022-10-18T09:47:39.257Z,22.90
2022-10-18T09:50:20.560Z,22.90
2022-10-18T09:52:59.057Z,22.90
2022-10-18T09:55:37.641Z,23.00
2022-10-18T09:58:12.836Z,23.20
2022-10-18T10:00:49.449Z,23.38
2022-10-18T10:03:21.191Z,23.50
2022-10-18T10:06:16.125Z,23.60
2022-10-18T10:08:56.545Z,23.82
2022-10-18T10:11:35.232Z,24.08
2022-10-18T10:14:14.421Z,24.30
2022-10-18T10:16:50.966Z,24.40
2022-10-18T10:19:27.814Z,24.40
2022-10-18T10:22:07.406Z,24.40
2022-10-18T10:24:47.647Z,24.40
2022-10-18T10:27:26.281Z,24.40
2022-10-18T10:30:05.800Z,24.56
2022-10-18T10:32:51.218Z,24.60
2022-10-18T10:38:29.281Z,24.74
2022-10-18T10:41:01.745Z,24.86
2022-10-18T10:43:38.770Z,24.92
2022-10-18T10:46:15.071Z,25.10
2022-10-18T10:49:04.134Z,25.10
2022-10-18T10:51:50.604Z,25.20
2022-10-18T10:54:35.515Z,25.20
2022-10-18T10:57:22.241Z,25.20
2022-10-18T10:59:57.071Z,25.30
2022-10-18T11:02:33.524Z,25.30
2022-10-18T11:05:24.815Z,25.40
2022-10-18T11:08:10.177Z,25.40
2022-10-18T11:10:55.771Z,25.40
2022-10-18T11:18:23.383Z,25.20
2022-10-18T11:21:21.344Z,25.48
2022-10-18T11:23:57.612Z,25.64
2022-10-18T11:26:53.466Z,25.70
2022-10-18T11:30:04.039Z,25.60
2022-10-18T11:32:45.628Z,25.60
2022-10-18T11:35:34.455Z,25.40
2022-10-18T11:38:18.058Z,25.30
2022-10-18T11:40:59.369Z,25.20
2022-10-18T11:44:01.081Z,25.36
2022-10-18T11:46:48.310Z,25.72
2022-10-18T11:49:53.528Z,26.10
2022-10-18T11:52:32.124Z,26.20
2022-10-18T11:55:20.116Z,26.40
2022-10-18T11:57:58.854Z,27.10
2022-10-18T12:00:47.380Z,28.30
2022-10-18T12:03:36.587Z,30.28
2022-10-18T12:06:16.221Z,32.20
2022-10-18T12:08:56.131Z,34.28
2022-10-18T12:11:36.066Z,35.76
2022-10-18T12:14:20.180Z,34.56
2022-10-18T12:17:07.715Z,33.74
2022-10-18T12:19:56.533Z,33.60
2022-10-18T12:22:41.178Z,32.54
2022-10-18T12:25:17.252Z,31.66
2022-10-18T12:35:43.867Z,29.08
2022-10-18T12:38:27.196Z,28.32
2022-10-18T12:41:01.442Z,27.76
2022-10-18T12:43:42.531Z,27.30
2022-10-18T12:56:52.091Z,25.20
2022-10-18T12:59:54.505Z,25.10
2022-10-18T13:02:40.083Z,24.98
2022-10-18T13:06:06.591Z,25.00
2022-10-18T13:09:02.093Z,25.00
2022-10-18T13:11:37.858Z,25.20
2022-10-18T13:14:49.404Z,25.96
2022-10-18T13:17:48.321Z,26.78
2022-10-18T13:28:35.304Z,30.68
2022-10-18T13:31:36.658Z,30.82
2022-10-18T13:34:45.590Z,32.48
2022-10-18T13:37:26.514Z,34.58
2022-10-18T13:40:28.680Z,34.38
2022-10-18T13:43:42.791Z,32.94
2022-10-18T13:46:29.760Z,31.64
2022-10-18T13:49:55.994Z,30.66
2022-10-18T13:52:50.297Z,29.54
2022-10-18T13:55:43.719Z,28.78
2022-10-18T13:58:22.625Z,27.92
2022-10-18T14:01:16.478Z,27.16
2022-10-18T14:04:14.012Z,26.40
2022-10-18T14:06:48.710Z,25.70
2022-10-18T14:12:32.157Z,24.60
2022-10-18T14:18:53.313Z,23.60
2022-10-18T14:21:35.860Z,23.24
2022-10-18T14:24:31.501Z,22.90
2022-10-18T14:27:43.461Z,22.60
2022-10-18T14:30:55.688Z,22.30
2022-10-18T14:41:10.068Z,21.20
2022-10-18T14:54:59.678Z,19.86
2022-10-18T14:57:31.996Z,19.22
2022-10-18T15:02:54.122Z,18.60
2022-10-18T15:06:39.297Z,18.32
2022-10-18T15:09:23.469Z,18.10
2022-10-18T15:12:20.649Z,18.00
2022-10-18T15:17:53.870Z,17.80
2022-10-18T15:23:27.584Z,17.50
2022-10-18T15:26:03.270Z,17.40
2022-10-18T15:28:49.556Z,17.40
2022-10-18T15:31:35.593Z,17.20
2022-10-18T15:34:15.699Z,17.10
2022-10-18T15:37:30.941Z,17.00
2022-10-18T15:41:02.661Z,16.90
2022-10-18T15:43:46.408Z,16.82
2022-10-18T15:49:58.115Z,16.80
2022-10-18T15:52:39.628Z,16.70
2022-10-18T15:55:56.889Z,16.60
2022-10-18T15:58:43.433Z,16.60
2022-10-18T16:01:36.674Z,16.60
2022-10-18T16:04:20.682Z,16.60
2022-10-18T16:07:10.774Z,16.60
2022-10-18T16:09:50.506Z,16.60
2022-10-18T16:12:44.927Z,16.60
2022-10-18T16:15:38.926Z,16.60
2022-10-18T16:18:52.012Z,16.60
2022-10-18T16:21:33.638Z,16.60
2022-10-18T16:24:28.351Z,16.60
2022-10-18T16:27:10.487Z,16.60
2022-10-18T16:29:45.177Z,16.50
2022-10-18T16:32:27.796Z,16.50
2022-10-18T16:35:16.129Z,16.40
2022-10-18T16:37:50.408Z,16.40
2022-10-18T16:41:27.226Z,16.30
2022-10-18T16:44:28.300Z,16.40
2022-10-18T16:47:07.211Z,16.50
2022-10-18T16:56:54.950Z,16.40
2022-10-18T16:59:29.486Z,16.40
2022-10-18T17:02:13.333Z,16.30
2022-10-18T17:04:52.500Z,16.30
2022-10-18T17:07:58.172Z,16.20
2022-10-18T17:13:42.833Z,16.16
2022-10-18T17:16:47.067Z,16.30
2022-10-18T17:19:24.618Z,16.30
2022-10-18T17:21:56.830Z,16.30
2022-10-18T17:24:36.258Z,16.20
2022-10-18T17:27:18.406Z,16.20
2022-10-18T17:30:01.978Z,16.10
2022-10-18T17:32:37.325Z,16.10
2022-10-18T17:35:17.950Z,16.10
2022-10-18T17:37:50.153Z,16.10
2022-10-18T17:40:24.501Z,16.10
2022-10-18T17:43:02.921Z,16.00
2022-10-18T17:45:40.946Z,16.00
2022-10-18T17:48:11.256Z,16.00
2022-10-18T17:50:44.096Z,16.00
2022-10-18T17:53:13.807Z,16.00
2022-10-18T17:55:42.299Z,16.00
2022-10-18T17:58:11.318Z,16.00
2022-10-18T18:00:40.069Z,16.00
2022-10-18T18:03:09.037Z,16.00
2022-10-18T18:05:38.997Z,15.90
2022-10-18T18:08:11.879Z,15.90
2022-10-18T18:10:41.310Z,15.90
2022-10-18T18:13:09.949Z,15.88
2022-10-18T18:15:43.077Z,15.90
2022-10-18T18:18:11.731Z,15.90
2022-10-18T18:20:51.295Z,15.90
2022-10-18T18:23:25.376Z,16.00
2022-10-18T18:25:56.724Z,16.00
2022-10-18T18:28:25.552Z,15.90
2022-10-18T18:30:57.189Z,15.90
2022-10-18T18:33:26.502Z,15.90
2022-10-18T18:35:56.416Z,16.00
2022-10-18T18:38:34.573Z,16.00
2022-10-18T18:41:07.805Z,16.00
2022-10-18T18:43:39.524Z,16.00
2022-10-18T18:46:19.269Z,16.00
2022-10-18T18:48:48.312Z,16.08
2022-10-18T18:51:19.656Z,16.10
2022-10-18T18:53:48.796Z,16.00
2022-10-18T18:58:50.998Z,15.86
2022-10-18T19:01:21.561Z,15.80
2022-10-18T19:03:51.890Z,15.78
2022-10-18T19:06:23.101Z,15.72
2022-10-18T19:08:53.645Z,15.80
2022-10-18T19:11:23.158Z,15.80
2022-10-18T19:13:52.273Z,15.80
2022-10-18T19:16:24.204Z,15.80
2022-10-18T19:18:59.057Z,15.80
2022-10-18T19:21:30.409Z,15.80
2022-10-18T19:23:59.579Z,15.84
2022-10-18T19:26:31.723Z,15.88
2022-10-18T19:29:11.003Z,15.90
2022-10-18T19:31:40.302Z,15.90
2022-10-18T19:34:11.428Z,15.90
2022-10-18T19:36:41.512Z,15.82
2022-10-18T19:39:13.994Z,15.80
2022-10-18T19:41:42.449Z,15.70
2022-10-18T19:44:11.108Z,15.70
2022-10-18T19:46:39.650Z,15.70
2022-10-18T19:49:08.419Z,15.70
2022-10-18T19:51:36.981Z,15.70
2022-10-18T19:54:07.163Z,15.70
2022-10-18T19:56:36.044Z,15.70
2022-10-18T20:03:10.237Z,15.80
2022-10-18T20:05:41.607Z,15.90
2022-10-18T20:08:10.129Z,15.90
2022-10-18T20:10:42.087Z,15.90
2022-10-18T20:14:18.458Z,15.90
2022-10-18T20:16:47.241Z,15.90
2022-10-18T20:19:15.732Z,15.90
2022-10-18T20:21:44.870Z,15.90
2022-10-18T20:24:13.707Z,15.90
2022-10-18T20:26:42.974Z,15.90
2022-10-18T20:29:16.095Z,16.00
2022-10-18T20:31:44.709Z,16.00
2022-10-18T20:34:25.065Z,16.08
2022-10-18T20:36:55.342Z,16.00
2022-10-18T20:39:30.523Z,16.00
2022-10-18T20:41:59.201Z,16.00
2022-10-18T20:44:31.314Z,16.00
2022-10-18T20:47:00.047Z,15.90
2022-10-18T20:49:28.621Z,15.80
2022-10-18T20:51:56.998Z,15.80
2022-10-18T20:54:25.396Z,15.74
2022-10-18T20:56:54.010Z,15.70
2022-10-18T20:59:23.240Z,15.80
2022-10-18T21:01:52.102Z,15.80
2022-10-18T21:04:21.044Z,15.80
2022-10-18T21:06:56.569Z,15.80
2022-10-18T21:09:25.574Z,15.70
2022-10-18T21:11:55.833Z,15.70
2022-10-18T21:14:25.954Z,15.70
2022-10-18T21:16:55.300Z,15.80
2022-10-18T21:19:26.966Z,15.80
2022-10-18T21:21:58.723Z,15.80
2022-10-18T21:24:27.694Z,15.80
2022-10-18T21:26:57.093Z,15.80
2022-10-18T21:29:26.346Z,15.90
2022-10-18T21:31:57.540Z,15.88
2022-10-18T21:34:26.198Z,15.80
2022-10-18T21:36:54.723Z,15.80
2022-10-18T21:41:57.323Z,16.00
2022-10-18T21:44:28.007Z,16.10
2022-10-18T21:46:56.347Z,16.22
2022-10-18T21:49:28.623Z,16.30
2022-10-18T21:52:03.074Z,16.30
2022-10-18T21:54:43.260Z,16.40
2022-10-18T21:57:19.602Z,16.36
2022-10-18T21:59:48.508Z,16.40
2022-10-18T22:02:17.239Z,16.40
2022-10-18T22:04:47.155Z,16.40
2022-10-18T22:07:15.830Z,16.40
2022-10-18T22:09:44.447Z,16.30
2022-10-18T22:12:13.005Z,16.26
2022-10-18T22:14:41.412Z,16.30
2022-10-18T22:17:09.769Z,16.40
2022-10-18T22:19:38.287Z,16.40
2022-10-18T22:22:06.907Z,16.40
2022-10-18T22:27:09.705Z,16.40
2022-10-18T22:29:38.130Z,16.34
2022-10-18T22:32:06.917Z,16.32
2022-10-18T22:34:36.136Z,16.30
2022-10-18T22:37:09.522Z,16.26
2022-10-18T22:39:38.061Z,16.18
2022-10-18T22:42:06.361Z,16.18
2022-10-18T22:44:34.679Z,16.08
2022-10-18T22:47:03.194Z,15.90
2022-10-18T22:49:31.592Z,15.80
2022-10-18T22:52:02.285Z,15.70
2022-10-18T22:54:30.677Z,15.60
2022-10-18T22:56:58.983Z,15.56
2022-10-18T22:59:27.455Z,15.50
2022-10-18T23:01:56.014Z,15.40
2022-10-18T23:04:24.246Z,15.30
2022-10-18T23:06:52.587Z,15.20
2022-10-18T23:09:21.107Z,15.20
2022-10-18T23:11:50.302Z,15.16
2022-10-18T23:14:19.414Z,15.18
2022-10-18T23:16:48.134Z,15.16
2022-10-18T23:19:17.624Z,15.20
2022-10-18T23:21:46.309Z,15.14
2022-10-18T23:24:14.946Z,15.10
2022-10-18T23:26:43.607Z,15.10
2022-10-18T23:29:12.262Z,15.02
2022-10-18T23:31:40.778Z,15.00
2022-10-18T23:34:10.220Z,14.98
2022-10-18T23:36:38.968Z,15.00
2022-10-18T23:39:07.405Z,15.00
2022-10-18T23:41:36.031Z,15.00
2022-10-18T23:44:04.871Z,14.90
2022-10-18T23:46:33.171Z,14.90
2022-10-18T23:49:01.554Z,14.80
2022-10-18T23:51:29.971Z,14.70
2022-10-18T23:53:58.465Z,14.62
2022-10-18T23:56:27.082Z,14.60
2022-10-18T23:58:56.534Z,14.44
